createdAt,value
2022-12-08T00:01:13.811Z,1.30
2022-12-08T00:03:41.707Z,1.30
2022-12-08T00:06:50.967Z,1.20
2022-12-08T00:09:34.717Z,1.20
2022-12-08T00:12:11.373Z,1.20
2022-12-08T00:14:43.955Z,1.20
2022-12-08T00:17:12.823Z,1.10
2022-12-08T00:19:40.931Z,1.10
2022-12-08T00:22:09.692Z,1.10
2022-12-08T00:24:39.758Z,1.00
2022-12-08T00:27:11.709Z,1.00
2022-12-08T00:29:38.909Z,0.90
2022-12-08T00:32:06.539Z,0.80
2022-12-08T00:34:34.894Z,0.80
2022-12-08T00:37:02.015Z,0.80
2022-12-08T00:39:29.548Z,0.80
2022-12-08T00:42:14.653Z,0.70
2022-12-08T00:44:43.157Z,0.80
2022-12-08T00:47:12.794Z,0.70
2022-12-08T00:49:40.009Z,0.70
2022-12-08T00:52:07.985Z,0.70
2022-12-08T00:54:35.295Z,0.60
2022-12-08T00:57:02.456Z,0.60
2022-12-08T00:59:29.405Z,0.60
2022-12-08T01:01:56.259Z,0.60
2022-12-08T01:04:23.143Z,0.60
2022-12-08T01:06:50.436Z,0.50
2022-12-08T01:09:18.788Z,0.60
2022-12-08T01:11:46.129Z,0.50
2022-12-08T01:14:13.400Z,0.50
2022-12-08T01:16:43.288Z,0.50
2022-12-08T01:19:13.160Z,0.50
2022-12-08T01:21:43.971Z,0.50
2022-12-08T01:24:20.418Z,0.40
2022-12-08T01:26:48.806Z,0.50
2022-12-08T01:29:17.498Z,0.40
2022-12-08T01:31:45.596Z,0.40
2022-12-08T01:34:12.703Z,0.40
2022-12-08T01:36:39.576Z,0.40
2022-12-08T01:39:10.588Z,0.40
2022-12-08T01:41:38.810Z,0.40
2022-12-08T01:44:08.881Z,0.40
2022-12-08T01:46:38.491Z,0.40
2022-12-08T01:49:11.296Z,0.40
2022-12-08T01:51:56.568Z,0.40
2022-12-08T01:54:26.696Z,0.40
2022-12-08T01:57:01.359Z,0.40
2022-12-08T01:59:30.565Z,0.40
2022-12-08T02:01:58.280Z,0.40
2022-12-08T02:04:25.069Z,0.40
2022-12-08T02:06:52.735Z,0.30
2022-12-08T02:09:20.220Z,0.30
2022-12-08T02:11:48.113Z,0.30
2022-12-08T02:14:15.555Z,0.30
2022-12-08T02:16:49.581Z,0.30
2022-12-08T02:19:31.199Z,0.30
2022-12-08T02:22:07.433Z,0.30
2022-12-08T02:25:08.260Z,0.30
2022-12-08T02:28:13.566Z,0.30
2022-12-08T02:30:54.097Z,0.20
2022-12-08T02:33:44.955Z,0.20
2022-12-08T02:36:18.139Z,0.30
2022-12-08T02:39:10.670Z,0.20
2022-12-08T02:42:08.188Z,0.20
2022-12-08T02:44:45.951Z,0.20
2022-12-08T02:47:16.811Z,0.20
2022-12-08T02:49:43.818Z,0.20
2022-12-08T02:52:13.609Z,0.10
2022-12-08T02:54:50.132Z,0.20
2022-12-08T02:57:58.607Z,0.10
2022-12-08T03:00:28.175Z,0.10
2022-12-08T03:02:58.802Z,0.10
2022-12-08T03:06:06.579Z,0.10
2022-12-08T03:08:48.424Z,0.10
2022-12-08T03:11:24.866Z,0.00
2022-12-08T03:13:54.926Z,0.00
2022-12-08T03:16:27.975Z,0.00
2022-12-08T03:19:05.661Z,0.00
2022-12-08T03:21:35.366Z,0.00
2022-12-08T03:24:07.396Z,0.00
2022-12-08T03:26:48.803Z,0.10
2022-12-08T03:29:16.044Z,0.10
2022-12-08T03:31:53.314Z,0.10
2022-12-08T03:34:21.957Z,0.20
2022-12-08T03:36:48.734Z,0.20
2022-12-08T03:39:15.568Z,0.20
2022-12-08T03:41:42.421Z,0.20
2022-12-08T03:44:09.245Z,0.20
2022-12-08T03:46:36.014Z,0.30
2022-12-08T03:49:02.843Z,0.30
2022-12-08T03:51:29.673Z,0.30
2022-12-08T03:53:56.784Z,0.30
2022-12-08T03:56:30.773Z,0.30
2022-12-08T03:58:58.602Z,0.40
2022-12-08T04:01:26.101Z,0.40
2022-12-08T04:03:53.239Z,0.40
2022-12-08T04:06:21.968Z,0.40
2022-12-08T04:08:50.367Z,0.40
2022-12-08T04:11:17.767Z,0.40
2022-12-08T04:13:44.922Z,0.40
2022-12-08T04:16:20.889Z,0.30
2022-12-08T04:18:48.215Z,0.30
2022-12-08T04:21:15.620Z,0.30
2022-12-08T04:23:42.927Z,0.30
2022-12-08T04:26:10.679Z,0.30
2022-12-08T04:28:37.834Z,0.30
2022-12-08T04:31:05.365Z,0.30
2022-12-08T04:33:32.512Z,0.40
2022-12-08T04:35:59.534Z,0.40
2022-12-08T04:38:26.357Z,0.40
2022-12-08T04:40:53.609Z,0.50
2022-12-08T04:43:20.759Z,0.50
2022-12-08T04:45:47.622Z,0.60
2022-12-08T04:48:14.898Z,0.60
2022-12-08T04:50:43.548Z,0.60
2022-12-08T04:53:11.282Z,0.60
2022-12-08T04:55:43.913Z,0.60
2022-12-08T04:58:18.693Z,0.60
2022-12-08T05:00:46.013Z,0.70
2022-12-08T05:03:13.557Z,0.70
2022-12-08T05:05:41.791Z,0.70
2022-12-08T05:08:10.391Z,0.70
2022-12-08T05:10:37.611Z,0.70
2022-12-08T05:13:04.529Z,0.70
2022-12-08T05:15:31.386Z,0.70
2022-12-08T05:17:58.322Z,0.70
2022-12-08T05:20:25.169Z,0.60
2022-12-08T05:22:51.964Z,0.60
2022-12-08T05:25:18.720Z,0.60
2022-12-08T05:27:45.479Z,0.60
2022-12-08T05:30:12.451Z,0.60
2022-12-08T05:32:40.271Z,0.60
2022-12-08T05:35:07.405Z,0.50
2022-12-08T05:37:34.294Z,0.50
2022-12-08T05:40:01.182Z,0.50
2022-12-08T05:42:28.036Z,0.40
2022-12-08T05:44:54.858Z,0.40
2022-12-08T05:47:21.729Z,0.30
2022-12-08T05:49:48.616Z,0.30
2022-12-08T05:52:16.956Z,0.20
2022-12-08T05:54:44.137Z,0.20
2022-12-08T05:57:10.971Z,0.10
2022-12-08T05:59:38.426Z,0.20
2022-12-08T06:02:05.251Z,0.10
2022-12-08T06:04:32.362Z,0.10
2022-12-08T06:06:59.134Z,0.10
2022-12-08T06:09:26.008Z,0.00
2022-12-08T06:11:52.761Z,0.00
2022-12-08T06:14:19.792Z,0.00
2022-12-08T06:16:46.838Z,-0.10
2022-12-08T06:19:13.928Z,-0.10
2022-12-08T06:21:41.837Z,-0.10
2022-12-08T06:24:08.849Z,-0.20
2022-12-08T06:26:36.154Z,-0.20
2022-12-08T06:29:04.997Z,-0.20
2022-12-08T06:31:31.957Z,-0.30
2022-12-08T06:33:58.967Z,-0.30
2022-12-08T06:36:28.205Z,-0.30
2022-12-08T06:38:55.875Z,-0.40
2022-12-08T06:41:22.693Z,-0.40
2022-12-08T06:43:49.992Z,-0.40
2022-12-08T06:46:19.476Z,-0.40
2022-12-08T06:48:46.462Z,-0.40
2022-12-08T06:51:17.246Z,-0.40
2022-12-08T06:53:46.324Z,-0.40
2022-12-08T06:56:15.974Z,-0.40
2022-12-08T06:58:48.942Z,-0.40
2022-12-08T07:01:20.651Z,-0.40
2022-12-08T07:03:47.950Z,-0.50
2022-12-08T07:06:19.346Z,-0.50
2022-12-08T07:08:46.570Z,-0.50
2022-12-08T07:11:19.596Z,-0.50
2022-12-08T07:13:48.244Z,-0.50
2022-12-08T07:16:15.212Z,-0.40
2022-12-08T07:18:43.103Z,-0.50
2022-12-08T07:21:12.370Z,-0.40
2022-12-08T07:23:39.302Z,-0.40
2022-12-08T07:26:08.447Z,-0.40
2022-12-08T07:28:37.027Z,-0.40
2022-12-08T07:31:05.541Z,-0.40
2022-12-08T07:33:33.594Z,-0.40
2022-12-08T07:36:03.319Z,-0.30
2022-12-08T07:38:31.698Z,-0.30
2022-12-08T07:41:02.135Z,-0.20
2022-12-08T07:43:29.056Z,-0.20
2022-12-08T07:45:55.974Z,-0.10
2022-12-08T07:48:23.117Z,0.00
2022-12-08T07:50:50.248Z,0.10
2022-12-08T07:53:17.139Z,0.80
2022-12-08T07:55:45.124Z,0.20
2022-12-08T07:58:11.962Z,0.30
2022-12-08T08:00:38.971Z,0.40
2022-12-08T08:03:06.358Z,0.40
2022-12-08T08:05:34.821Z,0.50
2022-12-08T08:08:02.002Z,0.60
2022-12-08T08:10:29.238Z,0.60
2022-12-08T08:12:59.658Z,0.60
2022-12-08T08:15:27.551Z,0.70
2022-12-08T08:17:54.754Z,0.70
2022-12-08T08:20:23.738Z,0.70
2022-12-08T08:22:51.703Z,0.70
2022-12-08T08:25:22.755Z,0.70
2022-12-08T08:27:49.871Z,0.80
2022-12-08T08:30:20.696Z,0.80
2022-12-08T08:32:49.224Z,0.90
2022-12-08T08:35:16.579Z,0.90
2022-12-08T08:37:48.528Z,1.00
2022-12-08T08:40:17.478Z,1.00
2022-12-08T08:42:44.338Z,1.10
2022-12-08T08:45:11.604Z,1.10
2022-12-08T08:47:38.689Z,1.20
2022-12-08T08:50:06.850Z,1.30
2022-12-08T08:52:35.133Z,1.40
2022-12-08T08:55:02.294Z,1.40
2022-12-08T08:57:29.199Z,1.50
2022-12-08T08:59:56.273Z,1.60
2022-12-08T09:02:23.215Z,1.60
2022-12-08T09:04:51.388Z,1.70
2022-12-08T09:07:18.604Z,1.80
2022-12-08T09:09:45.714Z,1.80
2022-12-08T09:12:13.944Z,1.90
2022-12-08T09:14:41.888Z,2.00
2022-12-08T09:17:08.734Z,2.00
2022-12-08T09:19:35.630Z,2.10
2022-12-08T09:22:02.717Z,2.20
2022-12-08T09:24:29.581Z,2.30
2022-12-08T09:26:56.715Z,2.30
2022-12-08T09:29:24.173Z,2.40
2022-12-08T09:31:51.293Z,2.40
2022-12-08T09:34:18.666Z,2.50
2022-12-08T09:36:45.686Z,2.60
2022-12-08T09:39:12.857Z,2.70
2022-12-08T09:41:47.796Z,2.70
2022-12-08T09:44:30.702Z,2.70
2022-12-08T09:46:58.858Z,2.70
2022-12-08T09:49:38.747Z,2.70
2022-12-08T09:52:12.117Z,2.70
2022-12-08T09:54:39.379Z,2.60
2022-12-08T09:57:13.479Z,2.60
2022-12-08T09:59:43.295Z,2.70
2022-12-08T10:02:25.619Z,2.80
2022-12-08T10:04:56.315Z,2.90
2022-12-08T10:07:32.135Z,2.90
2022-12-08T10:10:22.742Z,2.90
2022-12-08T10:13:25.405Z,3.00
2022-12-08T10:16:24.194Z,3.00
2022-12-08T10:19:35.037Z,3.10
2022-12-08T10:22:05.867Z,3.20
2022-12-08T10:24:53.399Z,3.30
2022-12-08T10:27:21.105Z,3.30
2022-12-08T10:29:49.017Z,3.20
2022-12-08T10:32:20.780Z,3.20
2022-12-08T10:35:08.776Z,3.20
2022-12-08T10:37:37.096Z,3.10
2022-12-08T10:40:17.394Z,3.10
2022-12-08T10:42:48.503Z,3.20
2022-12-08T10:45:53.088Z,3.20
2022-12-08T10:48:20.652Z,3.30
2022-12-08T10:50:53.361Z,3.50
2022-12-08T10:53:21.633Z,3.50
2022-12-08T10:55:53.891Z,3.50
2022-12-08T10:58:31.497Z,3.60
2022-12-08T11:01:05.615Z,3.60
2022-12-08T11:03:45.736Z,3.70
2022-12-08T11:06:20.658Z,3.70
2022-12-08T11:08:53.969Z,3.80
2022-12-08T11:11:29.020Z,3.90
2022-12-08T11:13:56.378Z,4.00
2022-12-08T11:16:23.678Z,4.10
2022-12-08T11:18:57.226Z,3.90
2022-12-08T11:21:36.093Z,3.90
2022-12-08T11:24:18.136Z,3.70
2022-12-08T11:26:51.988Z,3.60
2022-12-08T11:29:19.446Z,3.60
2022-12-08T11:31:57.528Z,3.50
2022-12-08T11:34:30.779Z,3.40
2022-12-08T11:36:58.924Z,3.30
2022-12-08T11:39:32.097Z,3.20
2022-12-08T11:42:01.344Z,3.10
2022-12-08T11:44:37.447Z,3.10
2022-12-08T11:47:14.663Z,3.00
2022-12-08T11:49:43.186Z,3.00
2022-12-08T11:52:19.453Z,3.00
2022-12-08T11:55:02.739Z,3.00
2022-12-08T11:57:30.390Z,3.00
2022-12-08T11:59:58.686Z,3.00
2022-12-08T12:02:42.558Z,3.10
2022-12-08T12:05:11.334Z,3.10
2022-12-08T12:07:38.342Z,3.10
2022-12-08T12:10:26.437Z,3.40
2022-12-08T12:13:19.892Z,3.20
2022-12-08T12:16:08.304Z,3.30
2022-12-08T12:18:46.550Z,3.40
2022-12-08T12:21:35.961Z,3.40
2022-12-08T12:24:16.374Z,3.60
2022-12-08T12:26:56.126Z,3.60
2022-12-08T12:29:26.143Z,3.70
2022-12-08T12:32:04.390Z,3.70
2022-12-08T12:34:56.679Z,3.70
2022-12-08T12:37:25.344Z,3.70
2022-12-08T12:40:06.077Z,3.70
2022-12-08T12:42:40.961Z,3.70
2022-12-08T12:45:26.127Z,3.70
2022-12-08T12:48:19.745Z,3.80
2022-12-08T12:50:51.432Z,3.80
2022-12-08T12:53:18.953Z,3.80
2022-12-08T12:55:46.129Z,3.70
2022-12-08T12:58:32.682Z,3.80
2022-12-08T13:01:12.893Z,3.70
2022-12-08T13:03:43.497Z,3.70
2022-12-08T13:06:15.168Z,3.70
2022-12-08T13:08:53.580Z,3.70
2022-12-08T13:11:22.167Z,3.70
2022-12-08T13:14:03.858Z,3.70
2022-12-08T13:16:38.659Z,3.60
2022-12-08T13:19:15.819Z,3.60
2022-12-08T13:21:42.852Z,3.60
2022-12-08T13:24:30.832Z,3.50
2022-12-08T13:27:03.699Z,3.50
2022-12-08T13:29:32.418Z,3.50
2022-12-08T13:32:00.043Z,3.40
2022-12-08T13:34:46.014Z,3.40
2022-12-08T13:37:15.921Z,3.40
2022-12-08T13:39:49.868Z,3.30
2022-12-08T13:42:35.448Z,3.30
2022-12-08T13:45:25.548Z,3.30
2022-12-08T13:48:30.128Z,3.20
2022-12-08T13:57:24.413Z,3.10
2022-12-08T13:59:51.522Z,3.10
2022-12-08T14:02:23.842Z,3.10
2022-12-08T14:07:41.119Z,3.10
2022-12-08T14:10:16.322Z,3.10
2022-12-08T14:12:48.092Z,3.10
2022-12-08T14:15:16.027Z,3.10
2022-12-08T14:17:54.991Z,3.10
2022-12-08T14:20:27.206Z,3.00
2022-12-08T14:22:54.189Z,3.10
2022-12-08T14:25:22.095Z,3.00
2022-12-08T14:27:49.847Z,3.00
2022-12-08T14:30:33.937Z,3.00
2022-12-08T14:33:02.904Z,3.00
2022-12-08T14:35:29.798Z,3.00
2022-12-08T14:38:00.242Z,2.90
2022-12-08T14:40:42.162Z,2.90
2022-12-08T14:43:08.987Z,2.90
2022-12-08T14:45:45.132Z,2.90
2022-12-08T14:48:27.990Z,2.90
2022-12-08T14:51:07.087Z,2.90
2022-12-08T14:53:55.634Z,2.80
2022-12-08T14:56:36.542Z,2.80
2022-12-08T14:59:14.250Z,2.80
2022-12-08T15:01:43.114Z,2.80
2022-12-08T15:04:12.931Z,2.90
2022-12-08T15:07:04.872Z,2.90
2022-12-08T15:09:43.858Z,2.90
2022-12-08T15:12:13.820Z,2.90
2022-12-08T15:14:54.354Z,2.90
2022-12-08T15:17:44.274Z,2.90
2022-12-08T15:20:41.615Z,2.90
2022-12-08T15:23:42.585Z,2.90
2022-12-08T15:26:18.552Z,2.80
2022-12-08T15:28:45.297Z,2.80
2022-12-08T15:31:12.156Z,2.80
2022-12-08T15:33:39.308Z,2.80
2022-12-08T15:36:06.490Z,2.80
2022-12-08T15:38:34.104Z,2.70
2022-12-08T15:41:00.933Z,3.20
2022-12-08T15:43:28.370Z,2.70
2022-12-08T15:45:59.404Z,2.70
2022-12-08T15:48:29.644Z,2.70
2022-12-08T15:50:57.259Z,2.70
2022-12-08T15:53:24.118Z,2.70
2022-12-08T15:56:26.507Z,2.80
2022-12-08T15:58:53.583Z,3.10
2022-12-08T16:01:21.837Z,2.70
2022-12-08T16:09:34.404Z,2.90
2022-12-08T16:12:20.297Z,2.90
2022-12-08T16:15:48.462Z,2.90
2022-12-08T16:17:34.617Z,2.90
2022-12-08T16:20:02.297Z,2.90
2022-12-08T16:25:20.598Z,3.00
2022-12-08T16:28:36.775Z,3.00
2022-12-08T16:30:41.308Z,3.00
2022-12-08T16:33:09.384Z,3.00
2022-12-08T16:35:36.242Z,3.00
2022-12-08T16:38:03.230Z,3.10
2022-12-08T16:40:30.436Z,3.30
2022-12-08T16:42:57.239Z,3.10
2022-12-08T16:45:29.050Z,3.10
2022-12-08T16:47:58.807Z,3.10
2022-12-08T16:50:31.388Z,3.10
2022-12-08T16:53:04.414Z,3.10
2022-12-08T16:55:32.337Z,3.10
2022-12-08T16:57:59.126Z,3.20
2022-12-08T17:00:28.097Z,3.10
2022-12-08T17:02:55.382Z,3.10
2022-12-08T17:05:23.935Z,3.20
2022-12-08T17:07:52.208Z,3.20
2022-12-08T17:10:23.599Z,3.10
2022-12-08T17:12:51.194Z,3.20
2022-12-08T17:15:21.349Z,3.20
2022-12-08T17:17:48.541Z,3.20
2022-12-08T17:20:19.559Z,3.20
2022-12-08T17:22:46.900Z,3.20
2022-12-08T17:25:14.063Z,3.20
2022-12-08T17:27:41.782Z,3.20
2022-12-08T17:30:11.546Z,3.30
2022-12-08T17:32:38.895Z,3.20
2022-12-08T17:35:07.308Z,3.20
2022-12-08T17:37:34.761Z,3.20
2022-12-08T17:40:01.740Z,3.30
2022-12-08T17:42:28.487Z,3.30
2022-12-08T17:44:55.265Z,3.30
2022-12-08T17:47:22.496Z,3.30
2022-12-08T17:49:50.678Z,3.30
2022-12-08T17:52:17.484Z,3.30
2022-12-08T17:54:44.314Z,3.40
2022-12-08T17:57:11.075Z,3.40
2022-12-08T17:59:38.058Z,3.30
2022-12-08T18:02:04.854Z,3.40
2022-12-08T18:04:31.750Z,3.40
2022-12-08T18:07:00.789Z,3.40
2022-12-08T18:09:30.628Z,3.40
2022-12-08T18:11:57.511Z,3.40
2022-12-08T18:14:24.749Z,3.40
2022-12-08T18:16:51.720Z,3.40
2022-12-08T18:19:18.664Z,3.30
2022-12-08T18:21:45.561Z,3.30
2022-12-08T18:24:19.410Z,3.30
2022-12-08T18:26:46.713Z,3.30
2022-12-08T18:29:13.887Z,3.30
2022-12-08T18:31:41.028Z,3.30
2022-12-08T18:34:07.967Z,3.30
2022-12-08T18:36:34.879Z,3.20
2022-12-08T18:39:05.728Z,3.20
2022-12-08T18:41:35.870Z,3.20
2022-12-08T18:44:02.677Z,3.10
2022-12-08T18:46:29.685Z,3.10
2022-12-08T18:48:56.503Z,3.10
2022-12-08T18:51:24.245Z,3.00
2022-12-08T18:53:51.942Z,3.00
2022-12-08T18:56:27.542Z,2.90
2022-12-08T18:59:01.290Z,2.80
2022-12-08T19:01:30.282Z,2.80
2022-12-08T19:04:26.818Z,2.70
2022-12-08T19:06:46.126Z,2.60
2022-12-08T19:09:14.072Z,2.50
2022-12-08T19:11:41.738Z,2.50
2022-12-08T19:14:09.051Z,2.50
2022-12-08T19:16:35.970Z,2.40
2022-12-08T19:19:04.958Z,2.40
2022-12-08T19:21:32.697Z,2.30
2022-12-08T19:24:00.034Z,2.20
2022-12-08T19:26:28.281Z,2.20
2022-12-08T19:28:55.083Z,2.20
2022-12-08T19:31:21.917Z,2.20
2022-12-08T19:33:48.764Z,2.20
2022-12-08T19:36:18.290Z,2.20
2022-12-08T19:39:03.602Z,2.20
2022-12-08T19:41:49.440Z,2.10
2022-12-08T19:44:32.786Z,2.10
2022-12-08T19:47:00.648Z,2.10
2022-12-08T19:49:27.767Z,2.10
2022-12-08T19:51:54.580Z,2.00
2022-12-08T19:54:21.438Z,2.00
2022-12-08T19:56:48.293Z,2.00
2022-12-08T19:59:18.197Z,2.00
2022-12-08T20:01:45.642Z,2.00
2022-12-08T20:04:14.667Z,2.00
2022-12-08T20:06:41.788Z,2.00
2022-12-08T20:09:10.315Z,2.00
2022-12-08T20:11:37.994Z,1.90
2022-12-08T20:14:05.318Z,1.90
2022-12-08T20:16:32.621Z,1.90
2022-12-08T20:18:59.665Z,1.90
2022-12-08T20:21:26.472Z,2.00
2022-12-08T20:23:53.339Z,1.90
2022-12-08T20:26:22.059Z,1.90
2022-12-08T20:28:49.541Z,1.90
2022-12-08T20:31:25.602Z,1.90
2022-12-08T20:33:53.402Z,1.90
2022-12-08T20:36:21.939Z,1.80
2022-12-08T20:38:50.503Z,1.90
2022-12-08T20:41:17.941Z,1.90
2022-12-08T20:43:46.676Z,1.90
2022-12-08T20:46:16.017Z,1.80
2022-12-08T20:48:44.210Z,1.80
2022-12-08T20:51:17.846Z,1.90
2022-12-08T20:53:45.311Z,1.80
2022-12-08T20:56:21.691Z,1.80
2022-12-08T20:58:49.501Z,1.80
2022-12-08T21:01:19.716Z,1.80
2022-12-08T21:03:48.704Z,1.80
2022-12-08T21:06:16.665Z,1.70
2022-12-08T21:08:43.863Z,1.70
2022-12-08T21:11:11.728Z,1.70
2022-12-08T21:13:39.819Z,1.70
2022-12-08T21:16:09.301Z,1.70
2022-12-08T21:18:39.691Z,1.70
2022-12-08T21:21:14.032Z,1.70
2022-12-08T21:23:42.386Z,1.70
2022-12-08T21:26:30.313Z,1.70
2022-12-08T21:29:01.177Z,1.70
2022-12-08T21:31:29.340Z,1.70
2022-12-08T21:33:56.438Z,1.70
2022-12-08T21:36:23.602Z,1.70
2022-12-08T21:38:50.962Z,2.00
2022-12-08T21:41:39.083Z,1.70
2022-12-08T21:44:10.398Z,1.70
2022-12-08T21:46:38.088Z,1.70
2022-12-08T21:49:05.738Z,1.70
2022-12-08T21:51:33.882Z,1.70
2022-12-08T21:54:00.785Z,1.60
2022-12-08T21:56:27.901Z,1.70
2022-12-08T21:58:54.970Z,1.60
2022-12-08T22:01:21.903Z,1.60
2022-12-08T22:03:48.877Z,1.60
2022-12-08T22:06:16.108Z,1.60
2022-12-08T22:08:43.564Z,1.60
2022-12-08T22:11:12.567Z,1.60
2022-12-08T22:13:41.268Z,1.60
2022-12-08T22:16:11.679Z,1.60
2022-12-08T22:18:40.612Z,1.60
2022-12-08T22:21:09.809Z,1.60
2022-12-08T22:23:37.343Z,1.60
2022-12-08T22:26:05.358Z,1.50
2022-12-08T22:28:36.173Z,1.50
2022-12-08T22:31:29.981Z,1.60
2022-12-08T22:33:59.113Z,1.60
2022-12-08T22:36:27.453Z,1.50
2022-12-08T22:38:54.932Z,1.50
2022-12-08T22:41:22.782Z,1.50
2022-12-08T22:43:50.313Z,1.50
2022-12-08T22:46:20.654Z,1.50
2022-12-08T22:48:48.073Z,1.50
2022-12-08T22:51:15.535Z,1.50
2022-12-08T22:53:43.171Z,1.40
2022-12-08T22:56:12.359Z,1.40
2022-12-08T22:58:40.511Z,1.40
2022-12-08T23:01:08.592Z,1.40
2022-12-08T23:03:35.866Z,1.40
2022-12-08T23:06:03.096Z,1.30
2022-12-08T23:08:30.158Z,1.30
2022-12-08T23:10:57.980Z,1.30
2022-12-08T23:13:24.908Z,1.30
2022-12-08T23:15:51.830Z,1.30
2022-12-08T23:18:19.307Z,1.30
2022-12-08T23:20:47.657Z,1.30
2022-12-08T23:23:14.927Z,1.30
2022-12-08T23:25:43.040Z,1.30
2022-12-08T23:28:10.726Z,1.30
2022-12-08T23:30:40.833Z,1.20
2022-12-08T23:33:07.922Z,1.20
2022-12-08T23:35:34.894Z,1.30
2022-12-08T23:38:01.871Z,1.20
2022-12-08T23:40:28.852Z,1.20
2022-12-08T23:42:55.984Z,1.20
2022-12-08T23:45:22.973Z,1.30
2022-12-08T23:47:50.093Z,1.30
2022-12-08T23:50:17.596Z,1.20
2022-12-08T23:52:45.472Z,1.20
2022-12-08T23:55:12.342Z,1.20
2022-12-08T23:57:39.154Z,1.20
